createdAt,value
2019-05-20T00:00:45.737Z,22.20
2019-05-20T00:03:16.805Z,20.92
2019-05-20T00:05:47.956Z,21.95
2019-05-20T00:08:19.296Z,22.50
2019-05-20T00:10:50.353Z,22.55
2019-05-20T00:13:21.401Z,22.02
2019-05-20T00:15:54.163Z,23.18
2019-05-20T00:18:25.316Z,25.30
2019-05-20T00:20:56.342Z,24.50
2019-05-20T00:23:27.505Z,22.85
2019-05-20T00:25:58.620Z,23.20
2019-05-20T00:28:29.691Z,23.02
2019-05-20T00:31:25.853Z,23.27
2019-05-20T00:34:32.491Z,23.92
2019-05-20T00:36:50.633Z,23.35
2019-05-20T00:39:22.061Z,24.90
2019-05-20T00:41:53.138Z,23.25
2019-05-20T00:44:24.881Z,26.25
2019-05-20T00:46:55.894Z,24.75
2019-05-20T00:52:30.947Z,25.00
2019-05-20T00:55:02.009Z,24.30
2019-05-20T00:57:33.119Z,24.05
2019-05-20T01:00:08.728Z,22.60
2019-05-20T01:05:13.477Z,20.50
2019-05-20T01:07:44.513Z,21.80
2019-05-20T01:10:16.659Z,21.00
2019-05-20T01:12:47.803Z,19.32
2019-05-20T01:15:18.879Z,18.57
2019-05-20T01:17:50.187Z,17.82
2019-05-20T01:20:21.435Z,15.63
2019-05-20T01:22:52.913Z,15.68
2019-05-20T01:25:24.061Z,15.20
2019-05-20T01:27:55.331Z,15.30
2019-05-20T01:30:26.471Z,15.20
2019-05-20T01:33:12.469Z,15.70
2019-05-20T01:35:29.987Z,14.58
2019-05-20T01:38:01.166Z,15.28
2019-05-20T01:40:32.094Z,14.58
2019-05-20T01:43:03.122Z,14.03
2019-05-20T01:45:34.404Z,14.00
2019-05-20T01:48:05.550Z,13.62
2019-05-20T01:50:37.068Z,14.15
2019-05-20T01:53:08.209Z,15.18
2019-05-20T01:55:39.253Z,14.83
2019-05-20T01:58:10.262Z,14.93
2019-05-20T02:00:41.422Z,14.28
2019-05-20T02:03:12.471Z,13.80
2019-05-20T02:05:43.469Z,13.88
2019-05-20T02:08:15.166Z,13.68
2019-05-20T02:10:46.328Z,13.30
2019-05-20T02:13:17.758Z,14.03
2019-05-20T02:15:50.952Z,14.45
2019-05-20T02:18:22.133Z,13.32
2019-05-20T02:20:53.210Z,12.45
2019-05-20T02:23:35.456Z,13.55
2019-05-20T02:26:06.516Z,12.82
2019-05-20T02:28:37.514Z,12.70
2019-05-20T02:31:08.765Z,12.50
2019-05-20T02:33:51.112Z,12.88
2019-05-20T02:36:12.173Z,13.88
2019-05-20T02:38:43.353Z,12.50
2019-05-20T02:41:14.351Z,12.30
2019-05-20T02:43:45.921Z,12.68
2019-05-20T02:46:16.980Z,13.08
2019-05-20T02:48:48.175Z,12.13
2019-05-20T02:51:20.916Z,13.08
2019-05-20T02:53:52.769Z,12.18
2019-05-20T02:56:23.919Z,13.13
2019-05-20T02:58:55.085Z,13.32
2019-05-20T03:01:26.320Z,13.00
2019-05-20T03:04:11.035Z,13.35
2019-05-20T03:06:29.826Z,13.45
2019-05-20T03:09:01.281Z,13.90
2019-05-20T03:11:32.831Z,12.82
2019-05-20T03:14:03.990Z,13.65
2019-05-20T03:16:35.436Z,14.18
2019-05-20T03:19:06.579Z,13.60
2019-05-20T03:21:37.738Z,13.25
2019-05-20T03:24:08.767Z,13.18
2019-05-20T03:26:39.806Z,12.75
2019-05-20T03:29:11.070Z,13.35
2019-05-20T03:31:42.206Z,14.20
2019-05-20T03:34:41.767Z,14.30
2019-05-20T03:36:45.919Z,14.20
2019-05-20T03:39:16.966Z,15.55
2019-05-20T03:41:48.023Z,16.00
2019-05-20T03:44:19.124Z,16.27
2019-05-20T03:46:50.159Z,16.10
2019-05-20T03:49:21.237Z,15.75
2019-05-20T03:51:52.723Z,15.45
2019-05-20T03:54:24.047Z,15.48
2019-05-20T03:56:55.198Z,15.93
2019-05-20T03:59:26.222Z,15.50
2019-05-20T04:01:57.231Z,16.12
2019-05-20T04:04:28.380Z,15.03
2019-05-20T04:06:59.416Z,15.10
2019-05-20T04:09:30.552Z,15.98
2019-05-20T04:12:01.840Z,16.75
2019-05-20T04:14:32.915Z,17.20
2019-05-20T04:17:03.931Z,15.05
2019-05-20T04:19:35.384Z,23.30
2019-05-20T04:22:06.434Z,22.48
2019-05-20T04:24:38.957Z,22.13
2019-05-20T04:27:10.014Z,23.15
2019-05-20T04:32:33.696Z,19.50
2019-05-20T04:35:20.438Z,23.60
2019-05-20T04:37:37.276Z,22.98
2019-05-20T04:40:08.687Z,22.62
2019-05-20T04:42:39.754Z,22.48
2019-05-20T04:45:11.371Z,22.15
2019-05-20T04:47:42.851Z,22.42
2019-05-20T04:50:13.965Z,24.35
2019-05-20T04:52:45.139Z,25.12
2019-05-20T04:55:17.104Z,23.98
2019-05-20T04:57:48.461Z,21.95
2019-05-20T05:00:43.394Z,20.45
2019-05-20T05:03:14.419Z,16.97
2019-05-20T05:05:45.702Z,16.02
2019-05-20T05:08:16.770Z,16.95
2019-05-20T05:10:47.961Z,16.80
2019-05-20T05:13:19.513Z,16.32
2019-05-20T05:15:50.766Z,19.12
2019-05-20T05:18:21.886Z,17.48
2019-05-20T05:20:53.401Z,17.62
2019-05-20T05:23:25.214Z,16.67
2019-05-20T05:26:16.773Z,16.90
2019-05-20T05:28:48.112Z,18.48
2019-05-20T05:31:19.456Z,17.87
2019-05-20T05:33:54.247Z,16.62
2019-05-20T05:36:23.548Z,17.12
2019-05-20T05:38:54.602Z,17.90
2019-05-20T05:41:25.674Z,17.90
2019-05-20T05:43:56.921Z,16.77
2019-05-20T05:46:28.137Z,17.75
2019-05-20T05:48:59.386Z,15.78
2019-05-20T05:51:31.037Z,16.52
2019-05-20T05:54:02.287Z,17.32
2019-05-20T05:56:33.917Z,17.95
2019-05-20T05:59:05.002Z,16.60
2019-05-20T06:01:36.145Z,16.37
2019-05-20T06:04:07.409Z,15.83
2019-05-20T06:06:38.506Z,16.65
2019-05-20T06:09:09.559Z,16.23
2019-05-20T06:11:40.771Z,16.80
2019-05-20T06:14:11.873Z,16.17
2019-05-20T06:16:43.008Z,17.73
2019-05-20T06:19:14.150Z,15.95
2019-05-20T06:21:45.571Z,15.20
2019-05-20T06:24:16.754Z,15.83
2019-05-20T06:26:47.838Z,16.45
2019-05-20T06:29:19.043Z,16.10
2019-05-20T06:31:50.193Z,15.90
2019-05-20T06:34:21.553Z,16.25
2019-05-20T06:36:54.610Z,14.03
2019-05-20T06:39:29.247Z,15.70
2019-05-20T06:42:00.486Z,14.93
2019-05-20T06:44:33.371Z,14.98
2019-05-20T06:47:04.685Z,14.85
2019-05-20T06:49:37.453Z,15.05
2019-05-20T06:52:34.823Z,16.97
2019-05-20T06:54:52.061Z,15.70
2019-05-20T06:57:24.142Z,16.10
2019-05-20T06:59:55.267Z,16.70
2019-05-20T07:02:26.348Z,15.75
2019-05-20T07:04:57.590Z,16.73
2019-05-20T07:07:28.625Z,15.65
2019-05-20T07:09:59.690Z,16.55
2019-05-20T07:12:40.690Z,15.70
2019-05-20T07:15:03.593Z,14.38
2019-05-20T07:17:34.743Z,15.88
2019-05-20T07:20:06.454Z,17.00
2019-05-20T07:22:54.449Z,15.72
2019-05-20T07:25:10.814Z,14.53
2019-05-20T07:27:41.859Z,15.38
2019-05-20T07:30:15.311Z,14.03
2019-05-20T07:32:45.802Z,14.43
2019-05-20T07:35:29.532Z,13.78
2019-05-20T07:37:49.475Z,14.60
2019-05-20T07:40:27.287Z,14.10
2019-05-20T07:42:58.475Z,13.18
2019-05-20T07:45:30.369Z,12.65
2019-05-20T07:48:01.754Z,12.47
2019-05-20T07:50:33.721Z,13.05
2019-05-20T07:53:05.574Z,12.37
2019-05-20T07:55:39.620Z,12.05
2019-05-20T07:58:11.935Z,12.70
2019-05-20T08:00:43.578Z,13.43
2019-05-20T08:03:14.576Z,13.93
2019-05-20T08:05:45.678Z,13.72
2019-05-20T08:08:16.779Z,19.20
2019-05-20T08:10:48.230Z,22.05
2019-05-20T08:13:19.370Z,21.25
2019-05-20T08:15:50.934Z,15.68
2019-05-20T08:18:22.177Z,22.98
2019-05-20T08:20:53.256Z,22.82
2019-05-20T08:23:25.416Z,21.75
2019-05-20T08:25:56.839Z,22.60
2019-05-20T08:28:27.992Z,19.20
2019-05-20T08:31:00.827Z,14.40
2019-05-20T08:33:32.337Z,12.15
2019-05-20T08:36:03.412Z,10.88
2019-05-20T08:38:34.684Z,10.35
2019-05-20T08:41:05.645Z,9.88
2019-05-20T08:43:36.809Z,9.65
2019-05-20T08:46:28.100Z,9.63
2019-05-20T08:49:19.331Z,10.28
2019-05-20T08:51:50.473Z,10.28
2019-05-20T08:54:21.540Z,10.05
2019-05-20T08:56:53.071Z,10.95
2019-05-20T08:59:24.658Z,10.48
2019-05-20T09:01:56.099Z,10.35
2019-05-20T09:04:29.323Z,9.80
2019-05-20T09:07:00.148Z,10.18
2019-05-20T09:09:31.600Z,10.38
2019-05-20T09:12:07.891Z,10.15
2019-05-20T09:14:40.729Z,12.45
2019-05-20T09:17:13.543Z,12.33
2019-05-20T09:19:47.049Z,13.38
2019-05-20T09:22:17.506Z,12.95
2019-05-20T09:24:51.205Z,15.10
2019-05-20T09:27:22.707Z,12.75
2019-05-20T09:29:54.050Z,13.08
2019-05-20T09:32:28.659Z,12.63
2019-05-20T09:35:00.230Z,11.27
2019-05-20T09:37:31.511Z,11.18
2019-05-20T09:40:02.744Z,10.23
2019-05-20T09:42:34.089Z,10.20
2019-05-20T09:45:05.796Z,11.15
2019-05-20T09:47:45.947Z,11.48
2019-05-20T09:50:17.137Z,11.38
2019-05-20T09:52:48.144Z,10.72
2019-05-20T09:55:19.439Z,11.40
2019-05-20T09:57:50.473Z,11.25
2019-05-20T10:00:22.235Z,10.08
2019-05-20T10:02:53.278Z,10.50
2019-05-20T10:05:24.356Z,10.93
2019-05-20T10:07:55.951Z,10.05
2019-05-20T10:10:27.271Z,11.50
2019-05-20T10:12:58.489Z,11.48
2019-05-20T10:15:29.754Z,11.18
2019-05-20T10:18:00.806Z,11.40
2019-05-20T10:20:31.837Z,11.38
2019-05-20T10:23:03.107Z,11.57
2019-05-20T10:25:34.534Z,11.90
2019-05-20T10:28:05.661Z,10.43
2019-05-20T10:30:36.854Z,10.13
2019-05-20T10:33:09.549Z,10.32
2019-05-20T10:35:40.209Z,10.70
2019-05-20T10:38:11.387Z,11.78
2019-05-20T10:40:42.410Z,13.15
2019-05-20T10:43:13.476Z,12.18
2019-05-20T10:45:45.210Z,14.00
2019-05-20T10:48:16.756Z,11.68
2019-05-20T10:50:48.023Z,12.33
2019-05-20T10:53:19.058Z,12.23
2019-05-20T10:56:03.073Z,12.53
2019-05-20T10:58:34.254Z,13.72
2019-05-20T11:01:05.425Z,12.33
2019-05-20T11:03:36.536Z,13.15
2019-05-20T11:06:07.636Z,12.85
2019-05-20T11:08:38.928Z,13.05
2019-05-20T11:11:13.923Z,13.83
2019-05-20T11:13:42.603Z,13.68
2019-05-20T11:16:13.804Z,13.95
2019-05-20T11:18:44.819Z,13.62
2019-05-20T11:23:56.779Z,12.33
2019-05-20T11:26:57.907Z,13.18
2019-05-20T11:29:29.071Z,13.10
2019-05-20T11:32:00.120Z,13.93
2019-05-20T11:34:31.422Z,13.70
2019-05-20T11:37:02.566Z,13.55
2019-05-20T11:39:34.205Z,12.07
2019-05-20T11:42:07.644Z,12.95
2019-05-20T11:44:38.799Z,11.93
2019-05-20T11:47:09.838Z,12.55
2019-05-20T11:49:41.220Z,13.00
2019-05-20T11:52:14.780Z,12.10
2019-05-20T11:54:51.384Z,12.82
2019-05-20T11:57:23.720Z,13.05
2019-05-20T11:59:54.941Z,12.60
2019-05-20T12:02:37.279Z,12.75
2019-05-20T12:05:09.942Z,12.68
2019-05-20T12:07:42.105Z,13.25
2019-05-20T12:10:13.783Z,14.15
2019-05-20T12:12:46.173Z,13.75
2019-05-20T12:15:17.721Z,13.83
2019-05-20T12:17:48.849Z,14.15
2019-05-20T12:20:21.320Z,14.53
2019-05-20T12:22:52.544Z,14.40
2019-05-20T12:25:23.682Z,14.60
2019-05-20T12:27:56.827Z,15.08
2019-05-20T12:30:48.590Z,14.73
2019-05-20T12:33:19.963Z,12.68
2019-05-20T12:35:51.338Z,12.80
2019-05-20T12:38:54.888Z,12.90
2019-05-20T12:41:26.267Z,12.43
2019-05-20T12:44:11.056Z,12.58
2019-05-20T12:46:29.894Z,12.43
2019-05-20T12:49:01.180Z,12.98
2019-05-20T12:51:32.375Z,13.43
2019-05-20T12:54:11.587Z,12.80
2019-05-20T12:56:42.793Z,13.30
2019-05-20T12:59:13.940Z,13.05
2019-05-20T13:01:53.255Z,12.25
2019-05-20T13:04:24.548Z,12.95
2019-05-20T13:06:55.713Z,13.78
2019-05-20T13:09:26.854Z,13.90
2019-05-20T13:11:58.080Z,13.22
2019-05-20T13:14:49.419Z,13.88
2019-05-20T13:17:20.458Z,13.05
2019-05-20T13:19:51.494Z,14.13
2019-05-20T13:22:22.663Z,13.45
2019-05-20T13:24:53.697Z,14.13
2019-05-20T13:27:24.802Z,13.83
2019-05-20T13:29:57.885Z,13.45
2019-05-20T13:32:53.307Z,13.32
2019-05-20T13:35:24.377Z,13.72
2019-05-20T13:37:55.438Z,13.30
2019-05-20T13:40:43.034Z,13.35
2019-05-20T13:42:59.012Z,14.00
2019-05-20T13:45:30.099Z,13.88
2019-05-20T13:48:01.146Z,13.32
2019-05-20T13:50:32.408Z,13.65
2019-05-20T13:53:05.474Z,13.43
2019-05-20T13:55:36.825Z,12.70
2019-05-20T13:58:07.760Z,12.82
2019-05-20T14:00:38.800Z,13.93
2019-05-20T14:03:09.977Z,12.43
2019-05-20T14:05:41.786Z,13.15
2019-05-20T14:08:13.092Z,12.98
2019-05-20T14:10:44.493Z,13.85
2019-05-20T14:13:15.939Z,13.78
2019-05-20T14:15:47.036Z,13.62
2019-05-20T14:18:18.065Z,13.38
2019-05-20T14:20:49.172Z,13.10
2019-05-20T14:23:21.187Z,13.38
2019-05-20T14:25:52.321Z,14.25
2019-05-20T14:28:23.328Z,13.85
2019-05-20T14:30:54.787Z,14.00
2019-05-20T14:33:25.815Z,14.73
2019-05-20T14:35:58.176Z,13.53
2019-05-20T14:38:29.240Z,15.13
2019-05-20T14:41:00.392Z,13.75
2019-05-20T14:43:31.586Z,14.28
2019-05-20T14:46:04.207Z,14.38
2019-05-20T14:48:35.461Z,13.20
2019-05-20T14:51:46.840Z,13.62
2019-05-20T14:54:18.648Z,13.65
2019-05-20T14:56:49.771Z,13.70
2019-05-20T14:59:22.523Z,13.85
2019-05-20T15:01:53.931Z,13.55
2019-05-20T15:04:24.986Z,13.62
2019-05-20T15:06:56.503Z,13.93
2019-05-20T15:09:29.050Z,13.55
2019-05-20T15:12:00.210Z,13.28
2019-05-20T15:14:31.297Z,14.38
2019-05-20T15:17:02.357Z,14.18
2019-05-20T15:19:33.537Z,13.70
2019-05-20T15:22:14.808Z,12.82
2019-05-20T15:24:46.065Z,13.68
2019-05-20T15:27:17.112Z,13.98
2019-05-20T15:29:49.529Z,14.03
2019-05-20T15:32:23.573Z,13.85
2019-05-20T15:38:35.844Z,14.07
2019-05-20T15:41:06.989Z,13.72
2019-05-20T15:43:53.372Z,13.10
2019-05-20T15:46:24.440Z,13.53
2019-05-20T15:48:55.457Z,14.07
2019-05-20T15:51:26.722Z,14.23
2019-05-20T15:53:57.805Z,15.00
2019-05-20T15:56:29.191Z,13.90
2019-05-20T15:59:00.455Z,14.70
2019-05-20T16:01:31.442Z,13.83
2019-05-20T16:04:02.490Z,14.23
2019-05-20T16:06:33.649Z,13.62
2019-05-20T16:09:05.840Z,14.28
2019-05-20T16:11:37.029Z,14.43
2019-05-20T16:14:08.260Z,14.00
2019-05-20T16:16:39.299Z,13.78
2019-05-20T16:19:10.930Z,14.05
2019-05-20T16:22:05.704Z,14.20
2019-05-20T16:24:37.479Z,14.43
2019-05-20T16:27:08.766Z,14.40
2019-05-20T16:29:39.778Z,13.80
2019-05-20T16:32:10.879Z,13.50
2019-05-20T16:34:43.582Z,14.10
2019-05-20T16:37:20.459Z,13.58
2019-05-20T16:39:51.514Z,13.85
2019-05-20T16:42:22.828Z,13.43
2019-05-20T16:44:54.093Z,14.25
2019-05-20T16:47:25.174Z,14.15
2019-05-20T16:49:56.703Z,13.60
2019-05-20T16:52:28.563Z,14.03
2019-05-20T16:55:00.647Z,13.28
2019-05-20T16:57:31.696Z,13.68
2019-05-20T17:00:02.789Z,13.13
2019-05-20T17:03:19.034Z,13.45
2019-05-20T17:05:50.202Z,13.53
2019-05-20T17:08:21.249Z,14.23
2019-05-20T17:11:02.098Z,13.53
2019-05-20T17:13:33.124Z,13.65
2019-05-20T17:16:04.379Z,12.95
2019-05-20T17:18:35.627Z,14.07
2019-05-20T17:21:07.422Z,13.25
2019-05-20T17:23:38.767Z,13.35
2019-05-20T17:26:10.004Z,12.78
2019-05-20T17:28:41.147Z,13.25
2019-05-20T17:31:14.545Z,13.78
2019-05-20T17:33:45.597Z,13.58
2019-05-20T17:36:17.659Z,13.88
2019-05-20T17:38:50.941Z,13.15
2019-05-20T17:41:22.268Z,13.00
2019-05-20T17:43:57.850Z,12.70
2019-05-20T17:48:58.903Z,11.33
2019-05-20T17:51:30.183Z,10.60
2019-05-20T17:54:01.215Z,11.12
2019-05-20T17:56:32.254Z,10.78
2019-05-20T17:59:03.430Z,11.00
2019-05-20T18:01:34.417Z,10.48
2019-05-20T18:04:05.719Z,10.05
2019-05-20T18:06:37.045Z,10.28
2019-05-20T18:09:09.459Z,9.63
2019-05-20T18:11:41.346Z,9.93
2019-05-20T18:14:12.569Z,9.58
2019-05-20T18:16:43.666Z,9.35
2019-05-20T18:19:14.709Z,9.88
2019-05-20T18:21:45.834Z,9.50
2019-05-20T18:24:16.876Z,9.85
2019-05-20T18:26:48.170Z,10.35
2019-05-20T18:29:19.414Z,8.83
2019-05-20T18:31:50.405Z,9.58
2019-05-20T18:34:21.461Z,9.68
2019-05-20T18:36:52.619Z,10.00
2019-05-20T18:39:24.101Z,9.55
2019-05-20T18:41:55.197Z,9.90
2019-05-20T18:44:26.349Z,9.45
2019-05-20T18:46:57.394Z,9.20
2019-05-20T18:49:28.826Z,8.75
2019-05-20T18:52:00.185Z,8.95
2019-05-20T18:54:31.278Z,9.65
2019-05-20T18:57:02.370Z,9.03
2019-05-20T18:59:33.514Z,8.83
2019-05-20T19:02:05.850Z,8.90
2019-05-20T19:04:37.000Z,9.10
2019-05-20T19:07:08.289Z,9.60
2019-05-20T19:09:39.318Z,9.18
2019-05-20T19:12:10.772Z,8.70
2019-05-20T19:14:42.129Z,9.35
2019-05-20T19:17:13.266Z,9.65
2019-05-20T19:19:44.327Z,9.88
2019-05-20T19:22:15.428Z,9.15
2019-05-20T19:24:46.612Z,9.05
2019-05-20T19:27:17.813Z,10.28
2019-05-20T19:29:48.806Z,10.15
2019-05-20T19:32:19.941Z,10.18
2019-05-20T19:34:51.084Z,9.80
2019-05-20T19:37:22.126Z,10.08
2019-05-20T19:39:53.131Z,11.10
2019-05-20T19:42:24.643Z,10.20
2019-05-20T19:44:55.661Z,11.03
2019-05-20T19:47:26.687Z,10.23
2019-05-20T19:49:57.853Z,11.45
2019-05-20T19:52:35.354Z,12.13
2019-05-20T19:55:07.554Z,11.80
2019-05-20T19:57:38.525Z,12.03
2019-05-20T20:00:10.220Z,11.57
2019-05-20T20:02:41.443Z,12.47
2019-05-20T20:05:12.722Z,12.35
2019-05-20T20:07:43.823Z,13.08
2019-05-20T20:10:15.156Z,13.08
2019-05-20T20:12:46.658Z,12.70
2019-05-20T20:15:19.448Z,13.90
2019-05-20T20:17:50.582Z,13.50
2019-05-20T20:20:21.613Z,13.65
2019-05-20T20:22:52.789Z,13.88
2019-05-20T20:25:23.800Z,14.38
2019-05-20T20:27:54.838Z,14.85
2019-05-20T20:30:26.399Z,13.62
2019-05-20T20:32:57.619Z,14.70
2019-05-20T20:35:37.561Z,15.08
2019-05-20T20:38:01.368Z,14.40
2019-05-20T20:40:32.401Z,13.93
2019-05-20T20:43:03.721Z,14.33
2019-05-20T20:45:36.141Z,14.25
2019-05-20T20:48:07.181Z,13.88
2019-05-20T20:50:38.191Z,14.10
2019-05-20T20:53:09.877Z,14.30
2019-05-20T20:55:40.995Z,13.55
2019-05-20T20:58:12.278Z,13.72
2019-05-20T21:00:48.045Z,14.35
2019-05-20T21:03:19.095Z,13.38
2019-05-20T21:05:50.105Z,14.45
2019-05-20T21:08:21.276Z,13.70
2019-05-20T21:11:12.321Z,14.33
2019-05-20T21:13:44.328Z,13.48
2019-05-20T21:16:15.433Z,14.65
2019-05-20T21:18:46.525Z,14.15
2019-05-20T21:21:17.639Z,13.83
2019-05-20T21:23:48.723Z,14.07
2019-05-20T21:26:19.762Z,14.47
2019-05-20T21:28:50.964Z,14.07
2019-05-20T21:31:22.343Z,14.58
2019-05-20T21:33:53.493Z,14.23
2019-05-20T21:36:24.693Z,14.73
2019-05-20T21:38:55.781Z,15.03
2019-05-20T21:41:27.230Z,14.00
2019-05-20T21:43:58.519Z,12.98
2019-05-20T21:46:29.797Z,13.68
2019-05-20T21:49:00.869Z,12.90
2019-05-20T21:51:32.134Z,12.37
2019-05-20T21:54:03.171Z,12.60
2019-05-20T21:56:34.217Z,13.08
2019-05-20T21:59:05.324Z,12.47
2019-05-20T22:01:36.422Z,12.65
2019-05-20T22:04:07.439Z,13.65
2019-05-20T22:06:38.604Z,12.58
2019-05-20T22:09:09.800Z,12.80
2019-05-20T22:11:42.104Z,12.53
2019-05-20T22:14:13.964Z,12.53
2019-05-20T22:16:45.203Z,12.45
2019-05-20T22:19:16.863Z,12.88
2019-05-20T22:21:49.643Z,13.08
2019-05-20T22:24:20.905Z,12.85
2019-05-20T22:26:52.342Z,13.38
2019-05-20T22:29:23.501Z,13.03
2019-05-20T22:31:54.646Z,12.95
2019-05-20T22:34:25.651Z,12.35
2019-05-20T22:36:56.783Z,12.63
2019-05-20T22:39:27.991Z,12.37
2019-05-20T22:41:59.022Z,12.88
2019-05-20T22:44:30.074Z,13.03
2019-05-20T22:47:01.716Z,12.82
2019-05-20T22:49:32.959Z,13.00
2019-05-20T22:52:04.154Z,12.73
2019-05-20T22:54:35.304Z,13.65
2019-05-20T22:57:06.265Z,13.53
2019-05-20T22:59:37.284Z,12.90
2019-05-20T23:02:08.576Z,13.38
2019-05-20T23:04:39.729Z,12.95
2019-05-20T23:07:10.788Z,13.30
2019-05-20T23:09:41.909Z,12.98
2019-05-20T23:12:12.909Z,14.07
2019-05-20T23:14:44.333Z,13.65
2019-05-20T23:17:15.446Z,14.07
2019-05-20T23:19:46.489Z,13.08
2019-05-20T23:22:17.533Z,13.18
2019-05-20T23:24:48.685Z,14.00
2019-05-20T23:27:19.735Z,12.80
2019-05-20T23:29:50.762Z,13.48
2019-05-20T23:32:30.940Z,13.48
2019-05-20T23:35:02.228Z,13.43
2019-05-20T23:37:33.542Z,13.85
2019-05-20T23:40:04.669Z,13.40
2019-05-20T23:42:36.114Z,13.30
2019-05-20T23:45:11.604Z,13.70
2019-05-20T23:47:42.612Z,14.03
2019-05-20T23:50:14.162Z,13.00
2019-05-20T23:52:45.267Z,13.50
2019-05-20T23:55:16.459Z,13.58
2019-05-20T23:57:47.501Z,12.58
